Time,TemperatureF,DewpointF,PressureIn,WindDirection,WindDirectionDegrees,WindSpeedMPH,WindSpeedGustMPH,Humidity,HourlyPrecipIn,Conditions,Clouds,dailyrainin,SoftwareType,DateUTC
2013-10-03 00:04:00,74.7,68.0,29.88,SE,129,4.0,7.0,80,0.00,,,0.00,weatherlink.com 1.10,2013-10-03 05:04:00,
2013-10-03 00:19:00,74.3,68.0,29.87,SSE,163,7.0,7.0,81,0.00,,,0.00,weatherlink.com 1.10,2013-10-03 05:19:00,
2013-10-03 00:34:00,74.1,68.0,29.87,SE,128,0.0,8.0,82,0.00,,,0.00,weatherlink.com 1.10,2013-10-03 05:34:00,
2013-10-03 00:49:00,74.1,68.0,29.86,SE,134,4.0,11.0,82,0.00,,,0.00,weatherlink.com 1.10,2013-10-03 05:49:00,
2013-10-03 01:04:00,74.0,68.0,29.86,SE,146,3.0,10.0,82,0.00,,,0.00,weatherlink.com 1.10,2013-10-03 06:04:00,
2013-10-03 01:19:00,73.8,68.0,29.85,SE,143,6.0,8.0,83,0.00,,,0.00,weatherlink.com 1.10,2013-10-03 06:19:00,
2013-10-03 01:34:00,73.4,68.0,29.85,SSE,158,3.0,7.0,84,0.00,,,0.00,weatherlink.com 1.10,2013-10-03 06:34:00,
2013-10-03 01:49:00,73.3,68.0,29.85,SE,124,2.0,10.0,84,0.00,,,0.00,weatherlink.com 1.10,2013-10-03 06:49:00,
2013-10-03 02:04:00,73.1,68.0,29.85,South,184,3.0,8.0,84,0.00,,,0.00,weatherlink.com 1.10,2013-10-03 07:04:00,
2013-10-03 02:19:00,73.1,68.0,29.85,SSW,207,1.0,7.0,84,0.00,,,0.00,weatherlink.com 1.10,2013-10-03 07:19:00,
2013-10-03 02:34:00,73.0,68.0,29.85,SE,134,2.0,9.0,85,0.00,,,0.00,weatherlink.com 1.10,2013-10-03 07:34:00,
2013-10-03 02:49:00,72.8,68.0,29.85,SSE,154,3.0,6.0,85,0.00,,,0.00,weatherlink.com 1.10,2013-10-03 07:49:00,
2013-10-03 03:04:00,72.6,68.0,29.84,SE,127,5.0,9.0,85,0.00,,,0.00,weatherlink.com 1.10,2013-10-03 08:04:00,
2013-10-03 03:19:00,72.4,68.0,29.84,SSE,159,4.0,7.0,86,0.00,,,0.00,weatherlink.com 1.10,2013-10-03 08:19:00,
2013-10-03 03:34:00,72.2,68.0,29.84,SSE,150,1.0,7.0,86,0.00,,,0.00,weatherlink.com 1.10,2013-10-03 08:34:00,
2013-10-03 03:49:00,72.0,68.0,29.84,SE,133,2.0,7.0,87,0.00,,,0.00,weatherlink.com 1.10,2013-10-03 08:49:00,
2013-10-03 04:04:00,72.1,68.0,29.83,South,169,3.0,14.0,87,0.00,,,0.00,weatherlink.com 1.10,2013-10-03 09:04:00,
2013-10-03 04:19:00,72.0,68.0,29.84,SSW,194,4.0,11.0,88,0.00,,,0.00,weatherlink.com 1.10,2013-10-03 09:19:00,
2013-10-03 04:34:00,72.3,69.0,29.83,SE,137,7.0,10.0,89,0.00,,,0.00,weatherlink.com 1.10,2013-10-03 09:34:00,
2013-10-03 04:49:00,72.5,69.0,29.83,SSW,193,4.0,12.0,89,0.00,,,0.00,weatherlink.com 1.10,2013-10-03 09:49:00,
2013-10-03 05:04:00,72.2,69.0,29.84,SSE,163,6.0,14.0,89,0.00,,,0.00,weatherlink.com 1.10,2013-10-03 10:04:00,
2013-10-03 05:19:00,-999.0,-99.9,29.84,North,-999,-999.0,-999.0,-999,0.00,,,0.00,weatherlink.com 1.10,2013-10-03 10:19:00,
2013-10-03 05:34:00,-999.0,-99.9,29.84,North,-999,-999.0,-999.0,-999,0.00,,,0.00,weatherlink.com 1.10,2013-10-03 10:34:00,
2013-10-03 05:49:00,-999.0,-99.9,29.85,North,-999,-999.0,-999.0,-999,0.00,,,0.00,weatherlink.com 1.10,2013-10-03 10:49:00,
2013-10-03 06:04:00,-999.0,-99.9,29.85,North,-999,-999.0,-999.0,-999,0.00,,,0.00,weatherlink.com 1.10,2013-10-03 11:04:00,
2013-10-03 06:19:00,-999.0,-99.9,29.85,North,-999,-999.0,-999.0,-999,0.00,,,0.00,weatherlink.com 1.10,2013-10-03 11:19:00,
2013-10-03 06:34:00,-999.0,-99.9,29.85,North,-999,-999.0,-999.0,-999,0.00,,,0.00,weatherlink.com 1.10,2013-10-03 11:34:00,
2013-10-03 06:49:00,-999.0,-99.9,29.85,North,-999,-999.0,-999.0,-999,0.00,,,0.00,weatherlink.com 1.10,2013-10-03 11:49:00,
2013-10-03 07:04:00,-999.0,-99.9,29.85,North,-999,-999.0,-999.0,-999,0.00,,,0.00,weatherlink.com 1.10,2013-10-03 12:04:00,
2013-10-03 07:19:00,-999.0,-99.9,29.86,North,-999,-999.0,-999.0,-999,0.00,,,0.00,weatherlink.com 1.10,2013-10-03 12:19:00,
2013-10-03 07:34:00,-999.0,-99.9,29.86,North,-999,-999.0,-999.0,-999,0.00,,,0.00,weatherlink.com 1.10,2013-10-03 12:34:00,
2013-10-03 07:49:00,-999.0,-99.9,29.86,North,-999,-999.0,-999.0,-999,0.00,,,0.00,weatherlink.com 1.10,2013-10-03 12:49:00,
2013-10-03 08:04:00,-999.0,-99.9,29.86,North,-999,-999.0,-999.0,-999,0.00,,,0.00,weatherlink.com 1.10,2013-10-03 13:04:00,
2013-10-03 08:19:00,74.5,71.0,29.86,SE,132,8.0,12.0,88,0.00,,,0.00,weatherlink.com 1.10,2013-10-03 13:19:00,
2013-10-03 08:34:00,74.9,71.0,29.86,SSE,167,4.0,10.0,87,0.00,,,0.00,weatherlink.com 1.10,2013-10-03 13:34:00,
2013-10-03 08:49:00,75.6,71.0,29.87,South,175,4.0,13.0,86,0.00,,,0.00,weatherlink.com 1.10,2013-10-03 13:49:00,
2013-10-03 09:04:00,76.9,72.0,29.87,SSW,199,5.0,13.0,84,0.00,,,0.00,weatherlink.com 1.10,2013-10-03 14:04:00,
2013-10-03 09:19:00,77.6,72.0,29.87,SSE,153,11.0,15.0,82,0.00,,,0.00,weatherlink.com 1.10,2013-10-03 14:19:00,
2013-10-03 09:34:00,78.6,72.0,29.87,SE,125,5.0,12.0,81,0.00,,,0.00,weatherlink.com 1.10,2013-10-03 14:34:00,
2013-10-03 09:49:00,79.0,72.0,29.87,WSW,245,4.0,13.0,80,0.00,,,0.00,weatherlink.com 1.10,2013-10-03 14:49:00,
2013-10-03 10:04:00,79.8,72.0,29.87,SE,134,5.0,14.0,78,0.00,,,0.00,weatherlink.com 1.10,2013-10-03 15:04:00,
2013-10-03 10:19:00,80.6,72.0,29.87,SW,236,7.0,16.0,76,0.00,,,0.00,weatherlink.com 1.10,2013-10-03 15:19:00,
2013-10-03 10:34:00,81.3,73.0,29.87,SE,140,8.0,13.0,75,0.00,,,0.00,weatherlink.com 1.10,2013-10-03 15:34:00,
2013-10-03 10:49:00,82.2,73.0,29.86,SE,146,12.0,14.0,73,0.00,,,0.00,weatherlink.com 1.10,2013-10-03 15:49:00,
2013-10-03 11:04:00,83.0,73.0,29.86,SE,135,12.0,12.0,72,0.00,,,0.00,weatherlink.com 1.10,2013-10-03 16:04:00,
2013-10-03 11:19:00,83.7,73.0,29.86,SSE,166,4.0,14.0,70,0.00,,,0.00,weatherlink.com 1.10,2013-10-03 16:19:00,
2013-10-03 11:35:00,84.7,73.0,29.86,WSW,257,5.0,14.0,67,0.00,,,0.00,weatherlink.com 1.10,2013-10-03 16:35:00,
2013-10-03 11:50:00,85.1,72.0,29.85,WSW,239,11.0,17.0,64,0.00,,,0.00,weatherlink.com 1.10,2013-10-03 16:50:00,
2013-10-03 12:05:00,85.6,72.0,29.85,South,177,8.0,15.0,63,0.00,,,0.00,weatherlink.com 1.10,2013-10-03 17:05:00,
2013-10-03 12:20:00,86.4,72.0,29.84,SE,128,5.0,13.0,62,0.00,,,0.00,weatherlink.com 1.10,2013-10-03 17:20:00,
2013-10-03 12:35:00,86.5,71.0,29.84,SE,146,8.0,14.0,61,0.00,,,0.00,weatherlink.com 1.10,2013-10-03 17:35:00,
2013-10-03 12:50:00,87.1,71.0,29.83,South,172,9.0,13.0,60,0.00,,,0.00,weatherlink.com 1.10,2013-10-03 17:50:00,
2013-10-03 13:05:00,88.1,71.0,29.82,SE,139,5.0,-999.0,58,-99.99,,,0.00,weatherlink.com 1.10,2013-10-03 18:05:00,
2013-10-03 13:20:00,88.2,71.0,29.82,South,169,10.0,18.0,57,0.00,,,0.00,weatherlink.com 1.10,2013-10-03 18:20:00,
2013-10-03 13:35:00,89.2,70.0,29.81,ESE,122,3.0,18.0,54,0.00,,,0.00,weatherlink.com 1.10,2013-10-03 18:35:00,
2013-10-03 13:50:00,89.2,70.0,29.80,South,180,4.0,15.0,53,0.00,,,0.00,weatherlink.com 1.10,2013-10-03 18:50:00,
2013-10-03 14:05:00,89.9,70.0,29.80,SSE,162,6.0,14.0,52,0.00,,,0.00,weatherlink.com 1.10,2013-10-03 19:05:00,
2013-10-03 14:20:00,89.4,69.0,29.79,SE,125,13.0,16.0,52,0.00,,,0.00,weatherlink.com 1.10,2013-10-03 19:20:00,
2013-10-03 14:35:00,89.8,69.0,29.78,South,170,5.0,17.0,51,0.00,,,0.00,weatherlink.com 1.10,2013-10-03 19:35:00,
2013-10-03 14:50:00,90.5,70.0,29.78,WSW,246,8.0,11.0,51,0.00,,,0.00,weatherlink.com 1.10,2013-10-03 19:50:00,
2013-10-03 15:05:00,90.0,70.0,29.78,SE,136,4.0,19.0,52,0.00,,,0.00,weatherlink.com 1.10,2013-10-03 20:05:00,
2013-10-03 15:20:00,90.1,70.0,29.77,SSE,167,7.0,16.0,51,0.00,,,0.00,weatherlink.com 1.10,2013-10-03 20:20:00,
2013-10-03 15:35:00,89.6,70.0,29.77,South,178,13.0,21.0,52,0.00,,,0.00,weatherlink.com 1.10,2013-10-03 20:35:00,
2013-10-03 15:50:00,89.3,69.0,29.76,SE,142,6.0,17.0,52,0.00,,,0.00,weatherlink.com 1.10,2013-10-03 20:50:00,
2013-10-03 16:05:00,89.5,69.0,29.76,South,184,8.0,15.0,51,0.00,,,0.00,weatherlink.com 1.10,2013-10-03 21:05:00,
2013-10-03 16:20:00,89.6,70.0,29.75,SSE,150,5.0,14.0,53,0.00,,,0.00,weatherlink.com 1.10,2013-10-03 21:20:00,
2013-10-03 16:35:00,89.3,69.0,29.74,SW,229,13.0,16.0,52,0.00,,,0.00,weatherlink.com 1.10,2013-10-03 21:35:00,
2013-10-03 16:50:00,88.8,69.0,29.74,SSE,167,4.0,16.0,53,0.00,,,0.00,weatherlink.com 1.10,2013-10-03 21:50:00,
2013-10-03 17:05:00,88.1,69.0,29.74,SSE,159,5.0,19.0,54,0.00,,,0.00,weatherlink.com 1.10,2013-10-03 22:05:00,
2013-10-03 17:20:00,87.9,69.0,29.75,ESE,121,6.0,18.0,53,0.00,,,0.00,weatherlink.com 1.10,2013-10-03 22:20:00,
2013-10-03 17:35:00,87.6,69.0,29.75,South,169,13.0,18.0,54,0.00,,,0.00,weatherlink.com 1.10,2013-10-03 22:35:00,
2013-10-03 17:50:00,87.4,68.0,29.75,South,173,6.0,15.0,53,0.00,,,0.00,weatherlink.com 1.10,2013-10-03 22:50:00,
2013-10-03 18:05:00,87.0,68.0,29.74,SSE,149,10.0,15.0,54,0.00,,,0.00,weatherlink.com 1.10,2013-10-03 23:05:00,
2013-10-03 18:20:00,86.2,68.0,29.74,SE,132,3.0,14.0,55,0.00,,,0.00,weatherlink.com 1.10,2013-10-03 23:20:00,
2013-10-03 18:35:00,85.5,68.0,29.74,SSW,205,4.0,15.0,56,0.00,,,0.00,weatherlink.com 1.10,2013-10-03 23:35:00,
2013-10-03 18:50:00,84.8,68.0,29.75,SE,146,2.0,14.0,58,0.00,,,0.00,weatherlink.com 1.10,2013-10-03 23:50:00,
2013-10-03 19:05:00,83.8,68.0,29.75,SW,219,2.0,10.0,59,0.00,,,0.00,weatherlink.com 1.10,2013-10-04 00:05:00,
2013-10-03 19:20:00,83.3,68.0,29.75,SSE,156,3.0,10.0,61,0.00,,,0.00,weatherlink.com 1.10,2013-10-04 00:20:00,
2013-10-03 19:35:00,82.8,68.0,29.75,SSW,213,4.0,9.0,61,0.00,,,0.00,weatherlink.com 1.10,2013-10-04 00:35:00,
2013-10-03 19:50:00,82.3,68.0,29.75,SE,129,3.0,9.0,62,0.00,,,0.00,weatherlink.com 1.10,2013-10-04 00:50:00,
2013-10-03 20:05:00,81.8,67.0,29.75,SE,134,4.0,9.0,62,0.00,,,0.00,weatherlink.com 1.10,2013-10-04 01:05:00,
2013-10-03 20:20:00,81.6,68.0,29.75,SE,141,5.0,11.0,63,0.00,,,0.00,weatherlink.com 1.10,2013-10-04 01:20:00,
2013-10-03 20:35:00,81.4,68.0,29.77,SSW,198,1.0,8.0,63,0.00,,,0.00,weatherlink.com 1.10,2013-10-04 01:35:00,
2013-10-03 20:50:00,80.6,68.0,29.76,SE,131,4.0,7.0,65,0.00,,,0.00,weatherlink.com 1.10,2013-10-04 01:50:00,
2013-10-03 21:05:00,80.3,68.0,29.77,SSE,153,4.0,8.0,66,0.00,,,0.00,weatherlink.com 1.10,2013-10-04 02:05:00,
2013-10-03 21:20:00,80.3,68.0,29.78,SE,132,1.0,11.0,67,0.00,,,0.00,weatherlink.com 1.10,2013-10-04 02:20:00,
2013-10-03 21:35:00,80.0,68.0,29.78,SSE,152,7.0,8.0,67,0.00,,,0.00,weatherlink.com 1.10,2013-10-04 02:35:00,
2013-10-03 21:50:00,79.1,68.0,29.78,SE,134,1.0,5.0,69,0.00,,,0.00,weatherlink.com 1.10,2013-10-04 02:50:00,
2013-10-03 22:05:00,78.3,68.0,29.79,SE,131,2.0,4.0,70,0.00,,,0.00,weatherlink.com 1.10,2013-10-04 03:05:00,
2013-10-03 22:20:00,77.9,68.0,29.79,SE,141,4.0,9.0,72,0.00,,,0.00,weatherlink.com 1.10,2013-10-04 03:20:00,
2013-10-03 22:35:00,77.9,68.0,29.79,ESE,121,5.0,9.0,72,0.00,,,0.00,weatherlink.com 1.10,2013-10-04 03:35:00,
2013-10-03 22:50:00,77.7,69.0,29.80,SSE,153,6.0,9.0,74,0.00,,,0.00,weatherlink.com 1.10,2013-10-04 03:50:00,
2013-10-03 23:36:00,77.0,69.0,29.80,SE,142,3.0,8.0,77,0.00,,,0.00,weatherlink.com 1.10,2013-10-04 04:36:00,
2013-10-03 23:51:00,76.9,69.0,29.80,SSW,201,4.0,7.0,77,0.00,,,0.00,weatherlink.com 1.10,2013-10-04 04:51:00,